Jp Cosmos — JD2534 — position and weather

sailwx.info

Track history (hours):
 
Tides and Currents Weather Stations Pressure Air Temp Water Temp Dewpoint Dewpoint Depression Visibility Wind Speed Wind Dir Waves Ship Positions

Jp Cosmos

Last reported at 2017-Oct-19 15:58 UTC. Time now 2017-Oct-19 16:20 UTC.
Position N 35°24' E 139°39'.

; draft 4.2 m.

Type: Cargo ship. MMSI: 431000474.

Date/timePositionNaut miles runAvg speedWind from/ knotsBaromVisibWave heightAir tempDewpointWater temp
2017-Oct-19 15:58N 35°24' E 139°39'0 0.0
2017-Oct-19 15:28N 35°24' E 139°39'0 0.0
2017-Oct-19 14:58N 35°24' E 139°39'0 0.0
2017-Oct-19 14:28N 35°24' E 139°39'0 0.0
2017-Oct-19 13:58N 35°24' E 139°39'0 0.0
2017-Oct-19 13:28N 35°24' E 139°39'0 0.0
2017-Oct-19 12:58N 35°24' E 139°39'0 0.0
2017-Oct-19 12:25N 35°24' E 139°39'0 0.0
2017-Oct-19 11:58N 35°24' E 139°39'0 0.0
2017-Oct-19 11:28N 35°24' E 139°39'0 0.0
2017-Oct-19 10:58N 35°24' E 139°39'0 0.0
2017-Oct-19 10:28N 35°24' E 139°39'0 0.0
2017-Oct-19 09:58N 35°24' E 139°39'0 0.0
2017-Oct-19 09:28N 35°24' E 139°39'0 0.0
2017-Oct-19 08:55N 35°24' E 139°39'0 0.3
2017-Oct-19 08:30N 35°24' E 139°38'3 5.7
2017-Oct-19 08:00N 35°24' E 139°42'611.8
2017-Oct-19 07:30N 35°28' E 139°47'3 5.4
2017-Oct-19 07:00N 35°30' E 139°44'1 1.8
2017-Oct-19 06:30N 35°30' E 139°43'0 0.0
2017-Oct-19 06:00N 35°30' E 139°43'0 0.0
2017-Oct-19 05:30N 35°30' E 139°43'0 0.0
2017-Oct-19 05:00N 35°30' E 139°43'0 0.0
2017-Oct-19 04:27N 35°30' E 139°43'0 0.0
2017-Oct-19 04:00N 35°30' E 139°43'0 0.0
2017-Oct-19 03:30N 35°30' E 139°43'0 0.0
2017-Oct-19 03:00N 35°30' E 139°43'0 0.0
2017-Oct-19 02:30N 35°30' E 139°43'0 0.0
2017-Oct-19 02:00N 35°30' E 139°43'0 0.0
2017-Oct-19 01:30N 35°30' E 139°43'0 0.0
2017-Oct-19 01:00N 35°30' E 139°43'0 0.0
2017-Oct-19 00:30N 35°30' E 139°43'1 1.1
2017-Oct-19 00:00N 35°29' E 139°43'3 6.0
2017-Oct-18 23:30N 35°26' E 139°43'4 8.1
2017-Oct-18 23:00N 35°23' E 139°40'1 2.7
2017-Oct-18 22:28N 35°24' E 139°39'0 0.1
2017-Oct-18 21:58N 35°24' E 139°39'0 0.1
2017-Oct-18 21:28N 35°24' E 139°39'0 0.1
2017-Oct-18 20:58N 35°24' E 139°39'0 0.1
2017-Oct-18 20:28N 35°24' E 139°39'0 0.0
2017-Oct-18 19:58N 35°24' E 139°39'0 0.0
2017-Oct-18 19:28N 35°24' E 139°39'0 0.0
2017-Oct-18 18:58N 35°24' E 139°39'0 0.0
2017-Oct-18 18:28N 35°24' E 139°39'0 0.0
2017-Oct-18 17:58N 35°24' E 139°39'0 0.0
2017-Oct-18 17:28N 35°24' E 139°39'0 0.0
2017-Oct-18 16:58N 35°24' E 139°39'0 0.0
2017-Oct-18 16:25N 35°24' E 139°39'0 0.0
2017-Oct-18 15:58N 35°24' E 139°39'0 0.0
2017-Oct-18 15:28N 35°24' E 139°39'0 0.0
2017-Oct-18 14:58N 35°24' E 139°39'0 0.0
2017-Oct-18 13:58N 35°24' E 139°39'0 0.0
2017-Oct-18 13:28N 35°24' E 139°39'0 0.0
2017-Oct-18 12:58N 35°24' E 139°39'0 0.0
2017-Oct-18 12:28N 35°24' E 139°39'0 0.0
2017-Oct-18 11:58N 35°24' E 139°39'0 0.0
2017-Oct-18 11:28N 35°24' E 139°39'0 0.0
2017-Oct-18 10:58N 35°24' E 139°39'0 0.0
2017-Oct-18 10:28N 35°24' E 139°39'0 0.0
2017-Oct-18 09:58N 35°24' E 139°39'0 0.0
2017-Oct-18 09:25N 35°24' E 139°39'0 0.0
2017-Oct-18 08:58N 35°24' E 139°39'0 0.0
2017-Oct-18 08:30N 35°24' E 139°39'0 0.6
2017-Oct-18 08:01N 35°24' E 139°38'3 6.2
2017-Oct-18 07:30N 35°24' E 139°42'510.5
2017-Oct-18 07:00N 35°28' E 139°47'3 5.4
2017-Oct-18 06:30N 35°30' E 139°45'1 2.4
2017-Oct-18 06:00N 35°30' E 139°43'0 0.0
2017-Oct-18 05:29N 35°30' E 139°43'0 0.0
2017-Oct-18 04:59N 35°30' E 139°43'0 0.0
2017-Oct-18 04:29N 35°30' E 139°43'0 0.0
2017-Oct-18 03:59N 35°30' E 139°43'0 0.0
2017-Oct-18 03:26N 35°30' E 139°43'0 0.0
2017-Oct-18 02:59N 35°30' E 139°43'0 0.0
2017-Oct-18 02:29N 35°30' E 139°43'0 0.0
2017-Oct-18 01:59N 35°30' E 139°43'0 0.0
2017-Oct-18 01:29N 35°30' E 139°43'0 0.0
2017-Oct-18 00:59N 35°30' E 139°43'0 0.0
2017-Oct-18 00:29N 35°30' E 139°43'0 0.8
2017-Oct-18 00:00N 35°29' E 139°43'3 6.6
2017-Oct-17 23:30N 35°26' E 139°43'4 8.0
2017-Oct-17 23:00N 35°23' E 139°40'1 2.5
2017-Oct-17 22:30N 35°24' E 139°39'0 0.0
2017-Oct-17 21:58N 35°24' E 139°39'0 0.0
2017-Oct-17 21:28N 35°24' E 139°39'0 0.0
2017-Oct-17 20:58N 35°24' E 139°39'0 0.0
2017-Oct-17 20:28N 35°24' E 139°39'0 0.0
2017-Oct-17 19:58N 35°24' E 139°39'0 0.0
2017-Oct-17 19:28N 35°24' E 139°39'0 0.0
2017-Oct-17 18:58N 35°24' E 139°39'0 0.0
2017-Oct-17 18:28N 35°24' E 139°39'0 0.0
2017-Oct-17 17:58N 35°24' E 139°39'0 0.0
2017-Oct-17 17:28N 35°24' E 139°39'0 0.0
2017-Oct-17 16:58N 35°24' E 139°39'0 0.0
2017-Oct-17 16:28N 35°24' E 139°39'0 0.0
2017-Oct-17 15:58N 35°24' E 139°39'0 0.0
2017-Oct-17 15:28N 35°24' E 139°39'0 0.0
2017-Oct-17 14:58N 35°24' E 139°39'0 0.0
2017-Oct-17 14:28N 35°24' E 139°39'0 0.0
2017-Oct-17 13:58N 35°24' E 139°39'0 0.0
2017-Oct-17 13:28N 35°24' E 139°39'0 0.0
2017-Oct-17 12:58N 35°24' E 139°39'0 0.0
2017-Oct-17 12:28N 35°24' E 139°39'0 0.0
2017-Oct-17 11:58N 35°24' E 139°39'0 0.0
2017-Oct-17 11:28N 35°24' E 139°39'0 0.0
2017-Oct-17 10:58N 35°24' E 139°39'0 0.0
2017-Oct-17 10:28N 35°24' E 139°39'0 0.0
2017-Oct-17 09:58N 35°24' E 139°39'0 0.0
2017-Oct-17 09:31N 35°24' E 139°39'1 1.3
2017-Oct-17 09:00N 35°24' E 139°39'5 9.8
2017-Oct-17 08:30N 35°26' E 139°44'5 9.5
2017-Oct-17 08:00N 35°30' E 139°47'3 6.8
2017-Oct-17 07:31N 35°30' E 139°43'0 0.4
2017-Oct-17 06:58N 35°30' E 139°43'0 0.0
2017-Oct-17 06:28N 35°30' E 139°43'0 0.0
2017-Oct-17 05:58N 35°30' E 139°43'0 0.0
2017-Oct-17 05:28N 35°30' E 139°43'0 0.0
2017-Oct-17 04:58N 35°30' E 139°43'0 0.0
2017-Oct-17 04:28N 35°30' E 139°43'0 0.0
2017-Oct-17 03:58N 35°30' E 139°43'0 0.0
2017-Oct-17 03:16N 35°30' E 139°43'0 0.0
2017-Oct-17 02:55N 35°30' E 139°43'0 0.0
2017-Oct-17 02:28N 35°30' E 139°43'0 0.0
2017-Oct-17 01:58N 35°30' E 139°43'0 0.3
2017-Oct-17 01:30N 35°30' E 139°43'2 3.7
2017-Oct-17 01:00N 35°28' E 139°42'3 6.5
2017-Oct-17 00:30N 35°25' E 139°43'3 5.5
2017-Oct-17 00:00N 35°24' E 139°39'1 1.5
2017-Oct-16 23:28N 35°24' E 139°39'0 0.0
2017-Oct-16 22:58N 35°24' E 139°39'0 0.0
2017-Oct-16 22:28N 35°24' E 139°39'0 0.1
2017-Oct-16 21:58N 35°24' E 139°39'0 0.1
2017-Oct-16 21:28N 35°24' E 139°39'0 0.0
2017-Oct-16 20:58N 35°24' E 139°39'0 0.0
2017-Oct-16 20:28N 35°24' E 139°39'0 0.0
2017-Oct-16 19:58N 35°24' E 139°39'0 0.0
2017-Oct-16 19:25N 35°24' E 139°39'0 0.0
2017-Oct-16 18:58N 35°24' E 139°39'0 0.0
2017-Oct-16 18:28N 35°24' E 139°39'0 0.0
2017-Oct-16 17:58N 35°24' E 139°39'0 0.0
2017-Oct-16 17:28N 35°24' E 139°39'0 0.0
2017-Oct-16 16:58N 35°24' E 139°39'0 0.0
2017-Oct-16 16:28N 35°24' E 139°39'0 0.0
2017-Oct-16 15:58N 35°24' E 139°39'0 0.0
2017-Oct-16 15:28N 35°24' E 139°39'0 0.0
2017-Oct-16 14:58N 35°24' E 139°39'0 0.0
2017-Oct-16 13:58N 35°24' E 139°39'0 0.0
2017-Oct-16 13:28N 35°24' E 139°39'0 0.0
2017-Oct-16 12:58N 35°24' E 139°39'0 0.0
2017-Oct-16 12:28N 35°24' E 139°39'0 0.0
2017-Oct-16 11:58N 35°24' E 139°39'0 0.0
2017-Oct-16 11:28N 35°24' E 139°39'0 0.0
2017-Oct-16 10:58N 35°24' E 139°39'0 0.0
2017-Oct-16 10:28N 35°24' E 139°39'0 0.0
2017-Oct-16 09:55N 35°24' E 139°39'0 0.1
2017-Oct-16 09:28N 35°24' E 139°39'0 0.0
2017-Oct-16 08:55N 35°24' E 139°39'0 0.0
2017-Oct-16 08:30N 35°24' E 139°39'0 0.8
2017-Oct-16 08:00N 35°24' E 139°39'3 6.6
2017-Oct-16 07:30N 35°25' E 139°43'510.8
2017-Oct-16 07:00N 35°28' E 139°47'3 5.9
2017-Oct-16 06:30N 35°30' E 139°45'1 2.4
2017-Oct-16 06:00N 35°30' E 139°43'0 0.0
2017-Oct-16 05:28N 35°30' E 139°43'0 0.0
2017-Oct-16 04:58N 35°30' E 139°43'0 0.0
2017-Oct-16 04:28N 35°30' E 139°43'0 0.0
2017-Oct-16 03:58N 35°30' E 139°43'0 0.0
2017-Oct-16 03:28N 35°30' E 139°43'0 0.0
2017-Oct-16 02:58N 35°30' E 139°43'0 0.0
2017-Oct-16 02:28N 35°30' E 139°43'0 0.0
2017-Oct-16 01:58N 35°30' E 139°43'0 0.0
2017-Oct-16 01:28N 35°30' E 139°43'0 0.0
2017-Oct-16 00:58N 35°30' E 139°43'0 0.0
2017-Oct-16 00:28N 35°30' E 139°43'0 0.0
2017-Oct-15 23:58N 35°30' E 139°43'0 0.0
2017-Oct-15 23:28N 35°30' E 139°43'0 0.0
2017-Oct-15 22:58N 35°30' E 139°43'0 0.3
2017-Oct-15 22:30N 35°30' E 139°43'2 3.2
2017-Oct-15 22:00N 35°28' E 139°42'3 6.2
2017-Oct-15 21:30N 35°26' E 139°44'2 3.2
2017-Oct-15 21:00N 35°25' E 139°46'0 0.2
2017-Oct-15 20:24N 35°25' E 139°45'0 0.1
2017-Oct-15 20:00N 35°25' E 139°45'0 0.0
2017-Oct-15 19:30N 35°25' E 139°45'0 0.0
2017-Oct-15 19:00N 35°25' E 139°45'0 0.0
2017-Oct-15 18:30N 35°25' E 139°45'0 0.0
2017-Oct-15 18:00N 35°25' E 139°45'0 0.0
2017-Oct-15 17:30N 35°25' E 139°45'0 0.0
2017-Oct-15 17:00N 35°25' E 139°45'0 0.1
2017-Oct-15 16:30N 35°25' E 139°45'0 0.0
2017-Oct-15 16:00N 35°25' E 139°45'0 0.0
2017-Oct-15 15:30N 35°25' E 139°45'0 0.1
2017-Oct-15 15:00N 35°25' E 139°45'3 2.8
2017-Oct-15 14:00N 35°23' E 139°42'3 6.7
2017-Oct-15 13:31N 35°24' E 139°39'0 0.0
2017-Oct-15 13:00N 35°24' E 139°39'0 0.0
2017-Oct-15 12:30N 35°24' E 139°39'0 0.0
2017-Oct-15 12:00N 35°24' E 139°39'0 0.0
2017-Oct-15 11:30N 35°24' E 139°39'0 0.0
2017-Oct-15 11:00N 35°24' E 139°39'0 0.0
2017-Oct-15 10:30N 35°24' E 139°39'0 0.0
2017-Oct-15 10:00N 35°24' E 139°39'0 0.0
2017-Oct-15 09:30N 35°24' E 139°39'0 0.0
2017-Oct-15 09:00N 35°24' E 139°39'0 0.0
2017-Oct-15 08:30N 35°24' E 139°39'0 0.0
2017-Oct-15 08:00N 35°24' E 139°39'0 0.0
2017-Oct-15 07:30N 35°24' E 139°39'0 0.0
2017-Oct-15 07:00N 35°24' E 139°39'0 0.0
2017-Oct-15 06:30N 35°24' E 139°39'0 0.0
2017-Oct-15 06:00N 35°24' E 139°39'0 0.0
2017-Oct-15 05:30N 35°24' E 139°39'0 0.0
2017-Oct-15 05:00N 35°24' E 139°39'0 0.0
2017-Oct-15 04:30N 35°24' E 139°39'0 0.0
2017-Oct-15 04:00N 35°24' E 139°39'0 0.1
2017-Oct-15 03:30N 35°24' E 139°39'0 0.0
2017-Oct-15 03:00N 35°24' E 139°39'0 0.0
2017-Oct-15 02:30N 35°24' E 139°39'0 0.0
2017-Oct-15 02:00N 35°24' E 139°39'0 0.0
2017-Oct-15 01:30N 35°24' E 139°39'0 0.0
2017-Oct-15 01:00N 35°24' E 139°39'0 0.9
2017-Oct-15 00:30N 35°24' E 139°39'4 7.1
2017-Oct-15 00:00N 35°24' E 139°43'5 9.5
2017-Oct-14 23:30N 35°28' E 139°47'3 5.6
2017-Oct-14 23:00N 35°30' E 139°44'1 2.3
2017-Oct-14 22:30N 35°30' E 139°43'0 0.0
2017-Oct-14 21:59N 35°30' E 139°43'0 0.0
2017-Oct-14 21:29N 35°30' E 139°43'0 0.0
2017-Oct-14 20:59N 35°30' E 139°43'0 0.0
2017-Oct-14 20:29N 35°30' E 139°43'0 0.0
2017-Oct-14 19:59N 35°30' E 139°43'0 0.0
2017-Oct-14 19:26N 35°30' E 139°43'0 0.0
2017-Oct-14 18:59N 35°30' E 139°43'0 0.0
2017-Oct-14 18:29N 35°30' E 139°43'0 0.0
2017-Oct-14 17:59N 35°30' E 139°43'0 0.0
2017-Oct-14 17:29N 35°30' E 139°43'0 0.0
2017-Oct-14 16:59N 35°30' E 139°43'0 0.0
2017-Oct-14 16:29N 35°30' E 139°43'0 0.0
2017-Oct-14 15:59N 35°30' E 139°43'0 0.0
2017-Oct-14 15:29N 35°30' E 139°43'0 0.0
2017-Oct-14 14:59N 35°30' E 139°43'0 0.0
2017-Oct-14 14:29N 35°30' E 139°43'0 0.0
2017-Oct-14 13:59N 35°30' E 139°43'0 0.0
2017-Oct-14 13:29N 35°30' E 139°43'0 0.0
2017-Oct-14 12:59N 35°30' E 139°43'0 0.0
2017-Oct-14 12:29N 35°30' E 139°43'0 0.0
2017-Oct-14 11:59N 35°30' E 139°43'0 0.0
2017-Oct-14 11:29N 35°30' E 139°43'0 0.0
2017-Oct-14 10:59N 35°30' E 139°43'0 0.0
2017-Oct-14 10:29N 35°30' E 139°43'0 0.0
2017-Oct-14 09:59N 35°30' E 139°43'0 0.0
2017-Oct-14 09:29N 35°30' E 139°43'0 0.7
2017-Oct-14 09:00N 35°29' E 139°43'3 5.2
2017-Oct-14 08:30N 35°27' E 139°43'4 8.1
2017-Oct-14 08:00N 35°24' E 139°40'2 3.0
2017-Oct-14 07:30N 35°24' E 139°39'0 0.0
2017-Oct-14 06:59N 35°24' E 139°39'0 0.0
2017-Oct-14 06:29N 35°24' E 139°39'0 0.0
2017-Oct-14 05:59N 35°24' E 139°39'0 0.0
2017-Oct-14 05:29N 35°24' E 139°39'0 0.0
2017-Oct-14 04:59N 35°24' E 139°39'0 0.0
2017-Oct-14 04:29N 35°24' E 139°39'0 0.0
2017-Oct-14 03:59N 35°24' E 139°39'0 0.0
2017-Oct-14 03:29N 35°24' E 139°39'0 0.0
2017-Oct-14 02:59N 35°24' E 139°39'0 0.0
2017-Oct-14 02:29N 35°24' E 139°39'0 0.0
2017-Oct-14 01:59N 35°24' E 139°39'0 0.0
2017-Oct-14 01:29N 35°24' E 139°39'0 0.0
2017-Oct-14 00:59N 35°24' E 139°39'0 0.2
2017-Oct-14 00:30N 35°24' E 139°38'2 3.4
2017-Oct-14 00:00N 35°23' E 139°40'5 9.6
2017-Oct-13 23:30N 35°27' E 139°45'4 8.1
2017-Oct-13 23:00N 35°30' E 139°47'3 6.1
2017-Oct-13 22:29N 35°30' E 139°43'0 0.3
2017-Oct-13 21:59N 35°30' E 139°43'0 0.0
2017-Oct-13 21:29N 35°30' E 139°43'0 0.0
2017-Oct-13 20:59N 35°30' E 139°43'0 0.0
2017-Oct-13 20:29N 35°30' E 139°43'0 0.0
2017-Oct-13 19:59N 35°30' E 139°43'0 0.0
2017-Oct-13 19:29N 35°30' E 139°43'0 0.0
2017-Oct-13 18:59N 35°30' E 139°43'0 0.0
2017-Oct-13 18:29N 35°30' E 139°43'0 0.0
2017-Oct-13 17:59N 35°30' E 139°43'0 0.0
2017-Oct-13 17:29N 35°30' E 139°43'0 0.0
2017-Oct-13 16:59N 35°30' E 139°43'0 0.0
2017-Oct-13 16:29N 35°30' E 139°43'0 0.0
2017-Oct-13 15:59N 35°30' E 139°43'0 0.0
2017-Oct-13 15:29N 35°30' E 139°43'0 0.0
2017-Oct-13 14:59N 35°30' E 139°43'0 0.0
2017-Oct-13 14:29N 35°30' E 139°43'0 0.0
2017-Oct-13 13:59N 35°30' E 139°43'0 0.0
2017-Oct-13 13:29N 35°30' E 139°43'0 0.0
2017-Oct-13 12:59N 35°30' E 139°43'0 0.0
2017-Oct-13 12:29N 35°30' E 139°43'0 0.0
2017-Oct-13 11:59N 35°30' E 139°43'0 0.0
2017-Oct-13 11:29N 35°30' E 139°43'0 0.0
2017-Oct-13 10:59N 35°30' E 139°43'0 0.0
2017-Oct-13 10:29N 35°30' E 139°43'0 0.0
2017-Oct-13 09:59N 35°30' E 139°43'0 0.0
2017-Oct-13 09:29N 35°30' E 139°43'0 0.0
2017-Oct-13 08:59N 35°30' E 139°43'0 0.0
2017-Oct-13 08:30N 35°30' E 139°43'0 0.9
2017-Oct-13 08:00N 35°29' E 139°43'3 5.6
2017-Oct-13 07:30N 35°27' E 139°43'4 7.8
2017-Oct-13 07:00N 35°23' E 139°41'2 3.4
2017-Oct-13 06:29N 35°24' E 139°39'0 0.0
2017-Oct-13 06:00N 35°24' E 139°39'0 0.0
2017-Oct-13 05:30N 35°24' E 139°39'0 0.0
2017-Oct-13 05:00N 35°24' E 139°39'0 0.0
2017-Oct-13 04:30N 35°24' E 139°39'0 0.0
2017-Oct-13 04:00N 35°24' E 139°39'0 0.0
2017-Oct-13 03:29N 35°24' E 139°39'0 0.0
2017-Oct-13 02:59N 35°24' E 139°39'0 0.0
2017-Oct-13 02:30N 35°24' E 139°39'0 0.0
2017-Oct-13 02:00N 35°24' E 139°39'0 0.0
2017-Oct-13 01:30N 35°24' E 139°39'0 0.0
2017-Oct-13 01:00N 35°24' E 139°39'0 0.0
2017-Oct-13 00:27N 35°24' E 139°39'0 0.0
2017-Oct-12 23:57N 35°24' E 139°39'0 0.2
2017-Oct-12 23:30N 35°24' E 139°38'1 2.8
2017-Oct-12 23:00N 35°23' E 139°40'4 7.9
2017-Oct-12 22:30N 35°26' E 139°44'510.6
2017-Oct-12 22:00N 35°29' E 139°49'4 7.6
2017-Oct-12 21:26N 35°30' E 139°55'0 0.1
2017-Oct-12 20:59N 35°30' E 139°55'0 0.0
2017-Oct-12 20:23N 35°30' E 139°55'0 0.0
2017-Oct-12 19:59N 35°30' E 139°55'0 0.0
2017-Oct-12 19:23N 35°30' E 139°55'0 0.0
2017-Oct-12 18:56N 35°30' E 139°55'0 0.0
2017-Oct-12 18:26N 35°30' E 139°55'0 0.0
2017-Oct-12 17:56N 35°30' E 139°55'0 0.0
2017-Oct-12 17:29N 35°30' E 139°55'0 0.0
2017-Oct-12 16:59N 35°30' E 139°55'0 0.0
2017-Oct-12 16:29N 35°30' E 139°55'0 0.0
2017-Oct-12 15:59N 35°30' E 139°55'0 0.0
2017-Oct-12 15:29N 35°30' E 139°55'0 0.1
2017-Oct-12 14:59N 35°30' E 139°55'0 0.1
2017-Oct-12 14:29N 35°30' E 139°55'0 0.0
2017-Oct-12 11:11N 35°30' E 139°55'0 0.1
2017-Oct-12 10:59N 35°30' E 139°55'0 0.1
2017-Oct-12 09:13N 35°30' E 139°55'1 5.2
2017-Oct-12 09:00N 35°30' E 139°56'3 5.8
2017-Oct-12 08:30N 35°27' E 139°58'0 0.1
2017-Oct-12 07:57N 35°27' E 139°58'0 0.0
2017-Oct-12 07:24N 35°27' E 139°58'0 0.0
2017-Oct-12 06:42N 35°27' E 139°58'0 0.0
2017-Oct-12 06:24N 35°27' E 139°58'0 0.0
2017-Oct-12 06:00N 35°27' E 139°58'0 0.0
2017-Oct-12 05:30N 35°27' E 139°58'0 0.0
2017-Oct-12 05:00N 35°27' E 139°58'0 0.0
2017-Oct-12 04:18N 35°27' E 139°58'0 0.2
2017-Oct-12 04:00N 35°27' E 139°58'2 4.4
2017-Oct-12 03:30N 35°29' E 139°56'0 0.2
2017-Oct-12 02:52N 35°29' E 139°56'0 0.0
2017-Oct-12 02:25N 35°29' E 139°56'0 0.0
2017-Oct-12 01:58N 35°29' E 139°56'0 0.0
2017-Oct-12 01:28N 35°29' E 139°56'6 3.9
2017-Oct-11 23:58N 35°27' E 139°49'511.3
2017-Oct-11 23:30N 35°24' E 139°43'4 7.7
2017-Oct-11 23:00N 35°24' E 139°39'0 0.0
2017-Oct-10 23:26N 35°24' E 139°38'1 1.9
2017-Oct-10 23:00N 35°24' E 139°39'0 0.9
2017-Oct-10 22:30N 35°24' E 139°40'0 0.0
2017-Oct-10 22:00N 35°24' E 139°40'0 0.0
2017-Oct-10 21:30N 35°24' E 139°40'0 0.0
2017-Oct-10 21:00N 35°24' E 139°40'0 0.0
2017-Oct-10 20:24N 35°24' E 139°40'0 0.0
2017-Oct-10 20:00N 35°24' E 139°40'0 0.0
2017-Oct-10 19:30N 35°24' E 139°40'0 0.0
2017-Oct-10 19:00N 35°24' E 139°40'0 0.0
2017-Oct-10 18:30N 35°24' E 139°40'0 0.0
2017-Oct-10 18:00N 35°24' E 139°40'0 0.0
2017-Oct-10 17:12N 35°24' E 139°40'0 0.0
2017-Oct-10 16:48N 35°24' E 139°40'0 0.0
2017-Oct-10 16:24N 35°24' E 139°40'0 0.0
2017-Oct-10 15:54N 35°24' E 139°40'0 0.0
2017-Oct-10 15:30N 35°24' E 139°40'0 0.1
2017-Oct-10 14:42N 35°24' E 139°40'0 0.1
2017-Oct-10 13:54N 35°24' E 139°40'0 0.0
2017-Oct-10 13:30N 35°24' E 139°40'0 0.0
2017-Oct-10 12:54N 35°24' E 139°40'0 0.0
2017-Oct-10 12:30N 35°24' E 139°40'0 0.0
2017-Oct-10 12:00N 35°24' E 139°40'0 0.0
2017-Oct-10 11:30N 35°24' E 139°40'0 0.0
2017-Oct-10 10:54N 35°24' E 139°40'0 0.0
2017-Oct-10 10:30N 35°24' E 139°40'0 0.0
2017-Oct-10 09:48N 35°24' E 139°40'0 0.0
2017-Oct-10 09:24N 35°24' E 139°40'0 0.0
2017-Oct-10 07:48N 35°24' E 139°40'0 0.0
2017-Oct-10 07:30N 35°24' E 139°40'1 1.2
2017-Oct-10 07:00N 35°24' E 139°39'1 1.3
2017-Oct-10 06:30N 35°24' E 139°39'0 0.0
2017-Oct-10 06:00N 35°24' E 139°39'0 0.0
2017-Oct-10 05:30N 35°24' E 139°39'0 0.0
2017-Oct-10 05:00N 35°24' E 139°39'0 0.0
2017-Oct-10 04:30N 35°24' E 139°39'0 0.0
2017-Oct-10 04:00N 35°24' E 139°39'0 0.0
2017-Oct-10 03:30N 35°24' E 139°39'0 0.0
2017-Oct-10 03:00N 35°24' E 139°39'0 0.0
2017-Oct-10 02:27N 35°24' E 139°39'0 0.0
2017-Oct-10 02:00N 35°24' E 139°39'0 0.0
2017-Oct-10 01:30N 35°24' E 139°39'0 0.0
2017-Oct-10 01:00N 35°24' E 139°39'0 0.0
2017-Oct-10 00:30N 35°24' E 139°39'0 0.0
2017-Oct-10 00:00N 35°24' E 139°39'0 0.0
2017-Oct-09 23:30N 35°24' E 139°39'1 1.3
2017-Oct-09 23:00N 35°24' E 139°39'4 7.1
2017-Oct-09 22:30N 35°22' E 139°43'1 0.4
2017-Oct-09 20:17N 35°22' E 139°44'0 0.0
2017-Oct-09 16:23N 35°22' E 139°44'0 0.1
2017-Oct-09 15:59N 35°22' E 139°44'  
Track history (hours):
 
Tides and Currents Weather Stations Pressure Air Temp Water Temp Dewpoint Dewpoint Depression Visibility Wind Speed Wind Dir Waves Ship Positions

Jp Cosmos

Last reported at 2017-Oct-19 15:58 UTC. Time now 2017-Oct-19 16:20 UTC.
Position N 35°24' E 139°39'.

; draft 4.2 m.

Type: Cargo ship. MMSI: 431000474.

Date/timePositionNaut miles runAvg speedWind from/ knotsBaromVisibWave heightAir tempDewpointWater temp
2017-Oct-19 15:58N 35°24' E 139°39'0 0.0
2017-Oct-19 15:28N 35°24' E 139°39'0 0.0
2017-Oct-19 14:58N 35°24' E 139°39'0 0.0
2017-Oct-19 14:28N 35°24' E 139°39'0 0.0
2017-Oct-19 13:58N 35°24' E 139°39'0 0.0
2017-Oct-19 13:28N 35°24' E 139°39'0 0.0
2017-Oct-19 12:58N 35°24' E 139°39'0 0.0
2017-Oct-19 12:25N 35°24' E 139°39'0 0.0
2017-Oct-19 11:58N 35°24' E 139°39'0 0.0
2017-Oct-19 11:28N 35°24' E 139°39'0 0.0
2017-Oct-19 10:58N 35°24' E 139°39'0 0.0
2017-Oct-19 10:28N 35°24' E 139°39'0 0.0
2017-Oct-19 09:58N 35°24' E 139°39'0 0.0
2017-Oct-19 09:28N 35°24' E 139°39'0 0.0
2017-Oct-19 08:55N 35°24' E 139°39'0 0.3
2017-Oct-19 08:30N 35°24' E 139°38'3 5.7
2017-Oct-19 08:00N 35°24' E 139°42'611.8
2017-Oct-19 07:30N 35°28' E 139°47'3 5.4
2017-Oct-19 07:00N 35°30' E 139°44'1 1.8
2017-Oct-19 06:30N 35°30' E 139°43'0 0.0
2017-Oct-19 06:00N 35°30' E 139°43'0 0.0
2017-Oct-19 05:30N 35°30' E 139°43'0 0.0
2017-Oct-19 05:00N 35°30' E 139°43'0 0.0
2017-Oct-19 04:27N 35°30' E 139°43'0 0.0
2017-Oct-19 04:00N 35°30' E 139°43'0 0.0
2017-Oct-19 03:30N 35°30' E 139°43'0 0.0
2017-Oct-19 03:00N 35°30' E 139°43'0 0.0
2017-Oct-19 02:30N 35°30' E 139°43'0 0.0
2017-Oct-19 02:00N 35°30' E 139°43'0 0.0
2017-Oct-19 01:30N 35°30' E 139°43'0 0.0
2017-Oct-19 01:00N 35°30' E 139°43'0 0.0
2017-Oct-19 00:30N 35°30' E 139°43'1 1.1
2017-Oct-19 00:00N 35°29' E 139°43'3 6.0
2017-Oct-18 23:30N 35°26' E 139°43'4 8.1
2017-Oct-18 23:00N 35°23' E 139°40'1 2.7
2017-Oct-18 22:28N 35°24' E 139°39'0 0.1
2017-Oct-18 21:58N 35°24' E 139°39'0 0.1
2017-Oct-18 21:28N 35°24' E 139°39'0 0.1
2017-Oct-18 20:58N 35°24' E 139°39'0 0.1
2017-Oct-18 20:28N 35°24' E 139°39'0 0.0
2017-Oct-18 19:58N 35°24' E 139°39'0 0.0
2017-Oct-18 19:28N 35°24' E 139°39'0 0.0
2017-Oct-18 18:58N 35°24' E 139°39'0 0.0
2017-Oct-18 18:28N 35°24' E 139°39'0 0.0
2017-Oct-18 17:58N 35°24' E 139°39'0 0.0
2017-Oct-18 17:28N 35°24' E 139°39'0 0.0
2017-Oct-18 16:58N 35°24' E 139°39'0 0.0
2017-Oct-18 16:25N 35°24' E 139°39'0 0.0
2017-Oct-18 15:58N 35°24' E 139°39'0 0.0
2017-Oct-18 15:28N 35°24' E 139°39'0 0.0
2017-Oct-18 14:58N 35°24' E 139°39'0 0.0
2017-Oct-18 13:58N 35°24' E 139°39'0 0.0
2017-Oct-18 13:28N 35°24' E 139°39'0 0.0
2017-Oct-18 12:58N 35°24' E 139°39'0 0.0
2017-Oct-18 12:28N 35°24' E 139°39'0 0.0
2017-Oct-18 11:58N 35°24' E 139°39'0 0.0
2017-Oct-18 11:28N 35°24' E 139°39'0 0.0
2017-Oct-18 10:58N 35°24' E 139°39'0 0.0
2017-Oct-18 10:28N 35°24' E 139°39'0 0.0
2017-Oct-18 09:58N 35°24' E 139°39'0 0.0
2017-Oct-18 09:25N 35°24' E 139°39'0 0.0
2017-Oct-18 08:58N 35°24' E 139°39'0 0.0
2017-Oct-18 08:30N 35°24' E 139°39'0 0.6
2017-Oct-18 08:01N 35°24' E 139°38'3 6.2
2017-Oct-18 07:30N 35°24' E 139°42'510.5
2017-Oct-18 07:00N 35°28' E 139°47'3 5.4
2017-Oct-18 06:30N 35°30' E 139°45'1 2.4
2017-Oct-18 06:00N 35°30' E 139°43'0 0.0
2017-Oct-18 05:29N 35°30' E 139°43'0 0.0
2017-Oct-18 04:59N 35°30' E 139°43'0 0.0
2017-Oct-18 04:29N 35°30' E 139°43'0 0.0
2017-Oct-18 03:59N 35°30' E 139°43'0 0.0
2017-Oct-18 03:26N 35°30' E 139°43'0 0.0
2017-Oct-18 02:59N 35°30' E 139°43'0 0.0
2017-Oct-18 02:29N 35°30' E 139°43'0 0.0
2017-Oct-18 01:59N 35°30' E 139°43'0 0.0
2017-Oct-18 01:29N 35°30' E 139°43'0 0.0
2017-Oct-18 00:59N 35°30' E 139°43'0 0.0
2017-Oct-18 00:29N 35°30' E 139°43'0 0.8
2017-Oct-18 00:00N 35°29' E 139°43'3 6.6
2017-Oct-17 23:30N 35°26' E 139°43'4 8.0
2017-Oct-17 23:00N 35°23' E 139°40'1 2.5
2017-Oct-17 22:30N 35°24' E 139°39'0 0.0
2017-Oct-17 21:58N 35°24' E 139°39'0 0.0
2017-Oct-17 21:28N 35°24' E 139°39'0 0.0
2017-Oct-17 20:58N 35°24' E 139°39'0 0.0
2017-Oct-17 20:28N 35°24' E 139°39'0 0.0
2017-Oct-17 19:58N 35°24' E 139°39'0 0.0
2017-Oct-17 19:28N 35°24' E 139°39'0 0.0
2017-Oct-17 18:58N 35°24' E 139°39'0 0.0
2017-Oct-17 18:28N 35°24' E 139°39'0 0.0
2017-Oct-17 17:58N 35°24' E 139°39'0 0.0
2017-Oct-17 17:28N 35°24' E 139°39'0 0.0
2017-Oct-17 16:58N 35°24' E 139°39'0 0.0
2017-Oct-17 16:28N 35°24' E 139°39'0 0.0
2017-Oct-17 15:58N 35°24' E 139°39'0 0.0
2017-Oct-17 15:28N 35°24' E 139°39'0 0.0
2017-Oct-17 14:58N 35°24' E 139°39'0 0.0
2017-Oct-17 14:28N 35°24' E 139°39'0 0.0
2017-Oct-17 13:58N 35°24' E 139°39'0 0.0
2017-Oct-17 13:28N 35°24' E 139°39'0 0.0
2017-Oct-17 12:58N 35°24' E 139°39'0 0.0
2017-Oct-17 12:28N 35°24' E 139°39'0 0.0
2017-Oct-17 11:58N 35°24' E 139°39'0 0.0
2017-Oct-17 11:28N 35°24' E 139°39'0 0.0
2017-Oct-17 10:58N 35°24' E 139°39'0 0.0
2017-Oct-17 10:28N 35°24' E 139°39'0 0.0
2017-Oct-17 09:58N 35°24' E 139°39'0 0.0
2017-Oct-17 09:31N 35°24' E 139°39'1 1.3
2017-Oct-17 09:00N 35°24' E 139°39'5 9.8
2017-Oct-17 08:30N 35°26' E 139°44'5 9.5
2017-Oct-17 08:00N 35°30' E 139°47'3 6.8
2017-Oct-17 07:31N 35°30' E 139°43'0 0.4
2017-Oct-17 06:58N 35°30' E 139°43'0 0.0
2017-Oct-17 06:28N 35°30' E 139°43'0 0.0
2017-Oct-17 05:58N 35°30' E 139°43'0 0.0
2017-Oct-17 05:28N 35°30' E 139°43'0 0.0
2017-Oct-17 04:58N 35°30' E 139°43'0 0.0
2017-Oct-17 04:28N 35°30' E 139°43'0 0.0
2017-Oct-17 03:58N 35°30' E 139°43'0 0.0
2017-Oct-17 03:16N 35°30' E 139°43'0 0.0
2017-Oct-17 02:55N 35°30' E 139°43'0 0.0
2017-Oct-17 02:28N 35°30' E 139°43'0 0.0
2017-Oct-17 01:58N 35°30' E 139°43'0 0.3
2017-Oct-17 01:30N 35°30' E 139°43'2 3.7
2017-Oct-17 01:00N 35°28' E 139°42'3 6.5
2017-Oct-17 00:30N 35°25' E 139°43'3 5.5
2017-Oct-17 00:00N 35°24' E 139°39'1 1.5
2017-Oct-16 23:28N 35°24' E 139°39'0 0.0
2017-Oct-16 22:58N 35°24' E 139°39'0 0.0
2017-Oct-16 22:28N 35°24' E 139°39'0 0.1
2017-Oct-16 21:58N 35°24' E 139°39'0 0.1
2017-Oct-16 21:28N 35°24' E 139°39'0 0.0
2017-Oct-16 20:58N 35°24' E 139°39'0 0.0
2017-Oct-16 20:28N 35°24' E 139°39'0 0.0
2017-Oct-16 19:58N 35°24' E 139°39'0 0.0
2017-Oct-16 19:25N 35°24' E 139°39'0 0.0
2017-Oct-16 18:58N 35°24' E 139°39'0 0.0
2017-Oct-16 18:28N 35°24' E 139°39'0 0.0
2017-Oct-16 17:58N 35°24' E 139°39'0 0.0
2017-Oct-16 17:28N 35°24' E 139°39'0 0.0
2017-Oct-16 16:58N 35°24' E 139°39'0 0.0
2017-Oct-16 16:28N 35°24' E 139°39'0 0.0
2017-Oct-16 15:58N 35°24' E 139°39'0 0.0
2017-Oct-16 15:28N 35°24' E 139°39'0 0.0
2017-Oct-16 14:58N 35°24' E 139°39'0 0.0
2017-Oct-16 13:58N 35°24' E 139°39'0 0.0
2017-Oct-16 13:28N 35°24' E 139°39'0 0.0
2017-Oct-16 12:58N 35°24' E 139°39'0 0.0
2017-Oct-16 12:28N 35°24' E 139°39'0 0.0
2017-Oct-16 11:58N 35°24' E 139°39'0 0.0
2017-Oct-16 11:28N 35°24' E 139°39'0 0.0
2017-Oct-16 10:58N 35°24' E 139°39'0 0.0
2017-Oct-16 10:28N 35°24' E 139°39'0 0.0
2017-Oct-16 09:55N 35°24' E 139°39'0 0.1
2017-Oct-16 09:28N 35°24' E 139°39'0 0.0
2017-Oct-16 08:55N 35°24' E 139°39'0 0.0
2017-Oct-16 08:30N 35°24' E 139°39'0 0.8
2017-Oct-16 08:00N 35°24' E 139°39'3 6.6
2017-Oct-16 07:30N 35°25' E 139°43'510.8
2017-Oct-16 07:00N 35°28' E 139°47'3 5.9
2017-Oct-16 06:30N 35°30' E 139°45'1 2.4
2017-Oct-16 06:00N 35°30' E 139°43'0 0.0
2017-Oct-16 05:28N 35°30' E 139°43'0 0.0
2017-Oct-16 04:58N 35°30' E 139°43'0 0.0
2017-Oct-16 04:28N 35°30' E 139°43'0 0.0
2017-Oct-16 03:58N 35°30' E 139°43'0 0.0
2017-Oct-16 03:28N 35°30' E 139°43'0 0.0
2017-Oct-16 02:58N 35°30' E 139°43'0 0.0
2017-Oct-16 02:28N 35°30' E 139°43'0 0.0
2017-Oct-16 01:58N 35°30' E 139°43'0 0.0
2017-Oct-16 01:28N 35°30' E 139°43'0 0.0
2017-Oct-16 00:58N 35°30' E 139°43'0 0.0
2017-Oct-16 00:28N 35°30' E 139°43'0 0.0
2017-Oct-15 23:58N 35°30' E 139°43'0 0.0
2017-Oct-15 23:28N 35°30' E 139°43'0 0.0
2017-Oct-15 22:58N 35°30' E 139°43'0 0.3
2017-Oct-15 22:30N 35°30' E 139°43'2 3.2
2017-Oct-15 22:00N 35°28' E 139°42'3 6.2
2017-Oct-15 21:30N 35°26' E 139°44'2 3.2
2017-Oct-15 21:00N 35°25' E 139°46'0 0.2
2017-Oct-15 20:24N 35°25' E 139°45'0 0.1
2017-Oct-15 20:00N 35°25' E 139°45'0 0.0
2017-Oct-15 19:30N 35°25' E 139°45'0 0.0
2017-Oct-15 19:00N 35°25' E 139°45'0 0.0
2017-Oct-15 18:30N 35°25' E 139°45'0 0.0
2017-Oct-15 18:00N 35°25' E 139°45'0 0.0
2017-Oct-15 17:30N 35°25' E 139°45'0 0.0
2017-Oct-15 17:00N 35°25' E 139°45'0 0.1
2017-Oct-15 16:30N 35°25' E 139°45'0 0.0
2017-Oct-15 16:00N 35°25' E 139°45'0 0.0
2017-Oct-15 15:30N 35°25' E 139°45'0 0.1
2017-Oct-15 15:00N 35°25' E 139°45'3 2.8
2017-Oct-15 14:00N 35°23' E 139°42'3 6.7
2017-Oct-15 13:31N 35°24' E 139°39'0 0.0
2017-Oct-15 13:00N 35°24' E 139°39'0 0.0
2017-Oct-15 12:30N 35°24' E 139°39'0 0.0
2017-Oct-15 12:00N 35°24' E 139°39'0 0.0
2017-Oct-15 11:30N 35°24' E 139°39'0 0.0
2017-Oct-15 11:00N 35°24' E 139°39'0 0.0
2017-Oct-15 10:30N 35°24' E 139°39'0 0.0
2017-Oct-15 10:00N 35°24' E 139°39'0 0.0
2017-Oct-15 09:30N 35°24' E 139°39'0 0.0
2017-Oct-15 09:00N 35°24' E 139°39'0 0.0
2017-Oct-15 08:30N 35°24' E 139°39'0 0.0
2017-Oct-15 08:00N 35°24' E 139°39'0 0.0
2017-Oct-15 07:30N 35°24' E 139°39'0 0.0
2017-Oct-15 07:00N 35°24' E 139°39'0 0.0
2017-Oct-15 06:30N 35°24' E 139°39'0 0.0
2017-Oct-15 06:00N 35°24' E 139°39'0 0.0
2017-Oct-15 05:30N 35°24' E 139°39'0 0.0
2017-Oct-15 05:00N 35°24' E 139°39'0 0.0
2017-Oct-15 04:30N 35°24' E 139°39'0 0.0
2017-Oct-15 04:00N 35°24' E 139°39'0 0.1
2017-Oct-15 03:30N 35°24' E 139°39'0 0.0
2017-Oct-15 03:00N 35°24' E 139°39'0 0.0
2017-Oct-15 02:30N 35°24' E 139°39'0 0.0
2017-Oct-15 02:00N 35°24' E 139°39'0 0.0
2017-Oct-15 01:30N 35°24' E 139°39'0 0.0
2017-Oct-15 01:00N 35°24' E 139°39'0 0.9
2017-Oct-15 00:30N 35°24' E 139°39'4 7.1
2017-Oct-15 00:00N 35°24' E 139°43'5 9.5
2017-Oct-14 23:30N 35°28' E 139°47'3 5.6
2017-Oct-14 23:00N 35°30' E 139°44'1 2.3
2017-Oct-14 22:30N 35°30' E 139°43'0 0.0
2017-Oct-14 21:59N 35°30' E 139°43'0 0.0
2017-Oct-14 21:29N 35°30' E 139°43'0 0.0
2017-Oct-14 20:59N 35°30' E 139°43'0 0.0
2017-Oct-14 20:29N 35°30' E 139°43'0 0.0
2017-Oct-14 19:59N 35°30' E 139°43'0 0.0
2017-Oct-14 19:26N 35°30' E 139°43'0 0.0
2017-Oct-14 18:59N 35°30' E 139°43'0 0.0
2017-Oct-14 18:29N 35°30' E 139°43'0 0.0
2017-Oct-14 17:59N 35°30' E 139°43'0 0.0
2017-Oct-14 17:29N 35°30' E 139°43'0 0.0
2017-Oct-14 16:59N 35°30' E 139°43'0 0.0
2017-Oct-14 16:29N 35°30' E 139°43'0 0.0
2017-Oct-14 15:59N 35°30' E 139°43'0 0.0
2017-Oct-14 15:29N 35°30' E 139°43'0 0.0
2017-Oct-14 14:59N 35°30' E 139°43'0 0.0
2017-Oct-14 14:29N 35°30' E 139°43'0 0.0
2017-Oct-14 13:59N 35°30' E 139°43'0 0.0
2017-Oct-14 13:29N 35°30' E 139°43'0 0.0
2017-Oct-14 12:59N 35°30' E 139°43'0 0.0
2017-Oct-14 12:29N 35°30' E 139°43'0 0.0
2017-Oct-14 11:59N 35°30' E 139°43'0 0.0
2017-Oct-14 11:29N 35°30' E 139°43'0 0.0
2017-Oct-14 10:59N 35°30' E 139°43'0 0.0
2017-Oct-14 10:29N 35°30' E 139°43'0 0.0
2017-Oct-14 09:59N 35°30' E 139°43'0 0.0
2017-Oct-14 09:29N 35°30' E 139°43'0 0.7
2017-Oct-14 09:00N 35°29' E 139°43'3 5.2
2017-Oct-14 08:30N 35°27' E 139°43'4 8.1
2017-Oct-14 08:00N 35°24' E 139°40'2 3.0
2017-Oct-14 07:30N 35°24' E 139°39'0 0.0
2017-Oct-14 06:59N 35°24' E 139°39'0 0.0
2017-Oct-14 06:29N 35°24' E 139°39'0 0.0
2017-Oct-14 05:59N 35°24' E 139°39'0 0.0
2017-Oct-14 05:29N 35°24' E 139°39'0 0.0
2017-Oct-14 04:59N 35°24' E 139°39'0 0.0
2017-Oct-14 04:29N 35°24' E 139°39'0 0.0
2017-Oct-14 03:59N 35°24' E 139°39'0 0.0
2017-Oct-14 03:29N 35°24' E 139°39'0 0.0
2017-Oct-14 02:59N 35°24' E 139°39'0 0.0
2017-Oct-14 02:29N 35°24' E 139°39'0 0.0
2017-Oct-14 01:59N 35°24' E 139°39'0 0.0
2017-Oct-14 01:29N 35°24' E 139°39'0 0.0
2017-Oct-14 00:59N 35°24' E 139°39'0 0.2
2017-Oct-14 00:30N 35°24' E 139°38'2 3.4
2017-Oct-14 00:00N 35°23' E 139°40'5 9.6
2017-Oct-13 23:30N 35°27' E 139°45'4 8.1
2017-Oct-13 23:00N 35°30' E 139°47'3 6.1
2017-Oct-13 22:29N 35°30' E 139°43'0 0.3
2017-Oct-13 21:59N 35°30' E 139°43'0 0.0
2017-Oct-13 21:29N 35°30' E 139°43'0 0.0
2017-Oct-13 20:59N 35°30' E 139°43'0 0.0
2017-Oct-13 20:29N 35°30' E 139°43'0 0.0
2017-Oct-13 19:59N 35°30' E 139°43'0 0.0
2017-Oct-13 19:29N 35°30' E 139°43'0 0.0
2017-Oct-13 18:59N 35°30' E 139°43'0 0.0
2017-Oct-13 18:29N 35°30' E 139°43'0 0.0
2017-Oct-13 17:59N 35°30' E 139°43'0 0.0
2017-Oct-13 17:29N 35°30' E 139°43'0 0.0
2017-Oct-13 16:59N 35°30' E 139°43'0 0.0
2017-Oct-13 16:29N 35°30' E 139°43'0 0.0
2017-Oct-13 15:59N 35°30' E 139°43'0 0.0
2017-Oct-13 15:29N 35°30' E 139°43'0 0.0
2017-Oct-13 14:59N 35°30' E 139°43'0 0.0
2017-Oct-13 14:29N 35°30' E 139°43'0 0.0
2017-Oct-13 13:59N 35°30' E 139°43'0 0.0
2017-Oct-13 13:29N 35°30' E 139°43'0 0.0
2017-Oct-13 12:59N 35°30' E 139°43'0 0.0
2017-Oct-13 12:29N 35°30' E 139°43'0 0.0
2017-Oct-13 11:59N 35°30' E 139°43'0 0.0
2017-Oct-13 11:29N 35°30' E 139°43'0 0.0
2017-Oct-13 10:59N 35°30' E 139°43'0 0.0
2017-Oct-13 10:29N 35°30' E 139°43'0 0.0
2017-Oct-13 09:59N 35°30' E 139°43'0 0.0
2017-Oct-13 09:29N 35°30' E 139°43'0 0.0
2017-Oct-13 08:59N 35°30' E 139°43'0 0.0
2017-Oct-13 08:30N 35°30' E 139°43'0 0.9
2017-Oct-13 08:00N 35°29' E 139°43'3 5.6
2017-Oct-13 07:30N 35°27' E 139°43'4 7.8
2017-Oct-13 07:00N 35°23' E 139°41'2 3.4
2017-Oct-13 06:29N 35°24' E 139°39'0 0.0
2017-Oct-13 06:00N 35°24' E 139°39'0 0.0
2017-Oct-13 05:30N 35°24' E 139°39'0 0.0
2017-Oct-13 05:00N 35°24' E 139°39'0 0.0
2017-Oct-13 04:30N 35°24' E 139°39'0 0.0
2017-Oct-13 04:00N 35°24' E 139°39'0 0.0
2017-Oct-13 03:29N 35°24' E 139°39'0 0.0
2017-Oct-13 02:59N 35°24' E 139°39'0 0.0
2017-Oct-13 02:30N 35°24' E 139°39'0 0.0
2017-Oct-13 02:00N 35°24' E 139°39'0 0.0
2017-Oct-13 01:30N 35°24' E 139°39'0 0.0
2017-Oct-13 01:00N 35°24' E 139°39'0 0.0
2017-Oct-13 00:27N 35°24' E 139°39'0 0.0
2017-Oct-12 23:57N 35°24' E 139°39'0 0.2
2017-Oct-12 23:30N 35°24' E 139°38'1 2.8
2017-Oct-12 23:00N 35°23' E 139°40'4 7.9
2017-Oct-12 22:30N 35°26' E 139°44'510.6
2017-Oct-12 22:00N 35°29' E 139°49'4 7.6
2017-Oct-12 21:26N 35°30' E 139°55'0 0.1
2017-Oct-12 20:59N 35°30' E 139°55'0 0.0
2017-Oct-12 20:23N 35°30' E 139°55'0 0.0
2017-Oct-12 19:59N 35°30' E 139°55'0 0.0
2017-Oct-12 19:23N 35°30' E 139°55'0 0.0
2017-Oct-12 18:56N 35°30' E 139°55'0 0.0
2017-Oct-12 18:26N 35°30' E 139°55'0 0.0
2017-Oct-12 17:56N 35°30' E 139°55'0 0.0
2017-Oct-12 17:29N 35°30' E 139°55'0 0.0
2017-Oct-12 16:59N 35°30' E 139°55'0 0.0
2017-Oct-12 16:29N 35°30' E 139°55'0 0.0
2017-Oct-12 15:59N 35°30' E 139°55'0 0.0
2017-Oct-12 15:29N 35°30' E 139°55'0 0.1
2017-Oct-12 14:59N 35°30' E 139°55'0 0.1
2017-Oct-12 14:29N 35°30' E 139°55'0 0.0
2017-Oct-12 11:11N 35°30' E 139°55'0 0.1
2017-Oct-12 10:59N 35°30' E 139°55'0 0.1
2017-Oct-12 09:13N 35°30' E 139°55'1 5.2
2017-Oct-12 09:00N 35°30' E 139°56'3 5.8
2017-Oct-12 08:30N 35°27' E 139°58'0 0.1
2017-Oct-12 07:57N 35°27' E 139°58'0 0.0
2017-Oct-12 07:24N 35°27' E 139°58'0 0.0
2017-Oct-12 06:42N 35°27' E 139°58'0 0.0
2017-Oct-12 06:24N 35°27' E 139°58'0 0.0
2017-Oct-12 06:00N 35°27' E 139°58'0 0.0
2017-Oct-12 05:30N 35°27' E 139°58'0 0.0
2017-Oct-12 05:00N 35°27' E 139°58'0 0.0
2017-Oct-12 04:18N 35°27' E 139°58'0 0.2
2017-Oct-12 04:00N 35°27' E 139°58'2 4.4
2017-Oct-12 03:30N 35°29' E 139°56'0 0.2
2017-Oct-12 02:52N 35°29' E 139°56'0 0.0
2017-Oct-12 02:25N 35°29' E 139°56'0 0.0
2017-Oct-12 01:58N 35°29' E 139°56'0 0.0
2017-Oct-12 01:28N 35°29' E 139°56'6 3.9
2017-Oct-11 23:58N 35°27' E 139°49'511.3
2017-Oct-11 23:30N 35°24' E 139°43'4 7.7
2017-Oct-11 23:00N 35°24' E 139°39'0 0.0
2017-Oct-10 23:26N 35°24' E 139°38'1 1.9
2017-Oct-10 23:00N 35°24' E 139°39'0 0.9
2017-Oct-10 22:30N 35°24' E 139°40'0 0.0
2017-Oct-10 22:00N 35°24' E 139°40'0 0.0
2017-Oct-10 21:30N 35°24' E 139°40'0 0.0
2017-Oct-10 21:00N 35°24' E 139°40'0 0.0
2017-Oct-10 20:24N 35°24' E 139°40'0 0.0
2017-Oct-10 20:00N 35°24' E 139°40'0 0.0
2017-Oct-10 19:30N 35°24' E 139°40'0 0.0
2017-Oct-10 19:00N 35°24' E 139°40'0 0.0
2017-Oct-10 18:30N 35°24' E 139°40'0 0.0
2017-Oct-10 18:00N 35°24' E 139°40'0 0.0
2017-Oct-10 17:12N 35°24' E 139°40'0 0.0
2017-Oct-10 16:48N 35°24' E 139°40'0 0.0
2017-Oct-10 16:24N 35°24' E 139°40'0 0.0
2017-Oct-10 15:54N 35°24' E 139°40'0 0.0
2017-Oct-10 15:30N 35°24' E 139°40'0 0.1
2017-Oct-10 14:42N 35°24' E 139°40'0 0.1
2017-Oct-10 13:54N 35°24' E 139°40'0 0.0
2017-Oct-10 13:30N 35°24' E 139°40'0 0.0
2017-Oct-10 12:54N 35°24' E 139°40'0 0.0
2017-Oct-10 12:30N 35°24' E 139°40'0 0.0
2017-Oct-10 12:00N 35°24' E 139°40'0 0.0
2017-Oct-10 11:30N 35°24' E 139°40'0 0.0
2017-Oct-10 10:54N 35°24' E 139°40'0 0.0
2017-Oct-10 10:30N 35°24' E 139°40'0 0.0
2017-Oct-10 09:48N 35°24' E 139°40'0 0.0
2017-Oct-10 09:24N 35°24' E 139°40'0 0.0
2017-Oct-10 07:48N 35°24' E 139°40'0 0.0
2017-Oct-10 07:30N 35°24' E 139°40'1 1.2
2017-Oct-10 07:00N 35°24' E 139°39'1 1.3
2017-Oct-10 06:30N 35°24' E 139°39'0 0.0
2017-Oct-10 06:00N 35°24' E 139°39'0 0.0
2017-Oct-10 05:30N 35°24' E 139°39'0 0.0
2017-Oct-10 05:00N 35°24' E 139°39'0 0.0
2017-Oct-10 04:30N 35°24' E 139°39'0 0.0
2017-Oct-10 04:00N 35°24' E 139°39'0 0.0
2017-Oct-10 03:30N 35°24' E 139°39'0 0.0
2017-Oct-10 03:00N 35°24' E 139°39'0 0.0
2017-Oct-10 02:27N 35°24' E 139°39'0 0.0
2017-Oct-10 02:00N 35°24' E 139°39'0 0.0
2017-Oct-10 01:30N 35°24' E 139°39'0 0.0
2017-Oct-10 01:00N 35°24' E 139°39'0 0.0
2017-Oct-10 00:30N 35°24' E 139°39'0 0.0
2017-Oct-10 00:00N 35°24' E 139°39'0 0.0
2017-Oct-09 23:30N 35°24' E 139°39'1 1.3
2017-Oct-09 23:00N 35°24' E 139°39'4 7.1
2017-Oct-09 22:30N 35°22' E 139°43'1 0.4
2017-Oct-09 20:17N 35°22' E 139°44'0 0.0
2017-Oct-09 16:23N 35°22' E 139°44'0 0.1
2017-Oct-09 15:59N 35°22' E 139°44'  

Dump ship's entire track history